Portada
METAR-TAF:

METAR-TAF

Aeroports :

Base aèria Cameri

Novara, Itàlia

latitud: 45-31N, longitud: 008-40E, altitud: 178 m

Observació

L'informe es va fer fa 5 hores i 8 minuts, a les 17:55 UTC
Vent 3 kt del Est/Sud-Est
Temperatura 10°C
Humitat 71%
Pressió 1022 hPa
Visibilitat 10 km o més
sense núvols per sota de 1500 mi sense presència de cumulonimbus.

METAR: LIMN 181755Z 12003KT CAVOK 10/05 Q1022 RMK SKC VIS MIN 9999 BLU

Hora: 00:03 (23:03 UTC)

Pronòstic

L'informe es va fer fa 9 hores i 3 minuts, a les 14:00 UTC
Pronòstic vàlid del 18 a les 15 UTC al 18 a les 24 UTC
Vent 3 kt amb direcció variable
Visibilitat 10 km o més
sense núvols per sota de 1500 mi sense presència de cumulonimbus.
Temporalment
l' 18 a les 21 UTC al 19 a les 08 UTC
Visibilitat: 3000 m
boirina

TAF: LIMN 181400Z 1815/1824 VRB03KT CAVOK TEMPO 1821/1908 3000 BR

Observacions i pronòstics meteorològics de més de 4000 aeroports (METAR i TAF).

Les estacions disponibles són els punts grocs i vermells al mapa.

Posi el ratolí al punt desitjat per veure el nom de l'estació.

Feu clic per veure les observacions i els pronòstics meteorològics.

Per canviar el mapa: feu clic els botons verds amb una creu de color negre per apropar; al botó verd amb un guió per allunyar la imatge; o en les fletxes verdes per a mapes adjacents.


METAR-TAF: